CPX336 Details

Departure: Miami International Airport (KMIA)
Arrival: Fort Worth Alliance Airport (KAFW) at N/A
Route: WINCO2 WINCO CHRRI DOLIE Y280 REDFN Q105 HRV J58 AEX PNUTS REEKO3
Notes:


Current Weather Information
KMIA 190653Z 12013KT 10SM FEW018 SCT028 SCT070 BKN220 28/23 A2985 RMK AO2 SLP107 T02830233
KAFW 190653Z 17007KT 10SM BKN085 BKN110 18/08 A2974 RMK AO2 SLP061 OCNL LTGIC DSNT NW T01830083